Time;durP1;ratioP1;P1;durP2;ratioP2;P2;SDS_P1;SDS_P2;PMS_P1;PMS_P2;Temp;Humidity;BMP_temperature;BMP_pressure;BME280_temperature;BME280_humidity;BME280_pressure;Samples;Min_cycle;Max_cycle;Signal;HPM_P1;HPM_P2
2023/02/07 00:01:39;;;;;;;2.25;1.15;;;6.00;96.70;;;;;;5052785;28;20043;-77
2023/02/07 00:04:07;;;;;;;2.75;1.20;;;6.00;96.70;;;;;;5051815;28;20041;-77
2023/02/07 00:06:37;;;;;;;2.35;0.90;;;6.00;96.70;;;;;;5052294;28;20074;-78
2023/02/07 00:09:07;;;;;;;1.95;1.20;;;5.90;96.70;;;;;;5064093;28;20040;-77
2023/02/07 00:11:39;;;;;;;2.67;1.20;;;5.90;96.70;;;;;;5063804;28;20054;-77
2023/02/07 00:14:09;;;;;;;2.58;1.17;;;5.90;96.70;;;;;;5075244;28;20150;-78
2023/02/07 00:16:37;;;;;;;2.88;1.20;;;5.90;96.70;;;;;;5083245;28;20040;-79
2023/02/07 00:19:05;;;;;;;1.75;0.90;;;5.80;96.70;;;;;;5063480;28;20039;-77
2023/02/07 00:21:33;;;;;;;1.83;1.02;;;5.80;96.70;;;;;;5056705;28;20064;-78
2023/02/07 00:24:03;;;;;;;2.53;1.20;;;5.80;96.70;;;;;;5067346;28;20048;-78
2023/02/07 00:26:31;;;;;;;2.20;1.08;;;5.90;96.70;;;;;;5077041;28;20074;-77
2023/02/07 00:28:59;;;;;;;3.45;1.10;;;5.80;96.70;;;;;;5061542;28;20531;-78
2023/02/07 00:31:30;;;;;;;2.50;1.40;;;5.90;96.70;;;;;;5053113;28;20038;-78
2023/02/07 00:34:01;;;;;;;2.20;1.17;;;5.90;96.70;;;;;;5065890;28;20127;-77
2023/02/07 00:36:32;;;;;;;1.83;1.08;;;5.80;96.70;;;;;;5071619;28;20059;-78
2023/02/07 00:39:05;;;;;;;3.10;1.42;;;5.80;96.70;;;;;;5084623;28;20076;-78
2023/02/07 00:41:33;;;;;;;1.80;1.05;;;5.80;96.70;;;;;;5058340;28;20222;-78
2023/02/07 00:44:01;;;;;;;2.67;1.20;;;5.80;96.70;;;;;;5052663;28;20056;-73
2023/02/07 00:46:29;;;;;;;2.40;1.40;;;5.90;96.70;;;;;;5059450;28;20055;-73
2023/02/07 00:48:58;;;;;;;3.90;1.48;;;5.90;96.70;;;;;;5062422;28;20113;-73
2023/02/07 00:51:26;;;;;;;3.13;1.17;;;5.80;96.70;;;;;;5062063;28;20040;-73
2023/02/07 00:53:54;;;;;;;3.15;1.45;;;5.80;96.70;;;;;;5058998;28;20044;-72
2023/02/07 00:56:27;;;;;;;2.08;1.30;;;5.70;96.70;;;;;;5054746;28;20139;-73
2023/02/07 00:58:57;;;;;;;2.45;1.42;;;5.70;96.70;;;;;;5056206;28;20555;-71
2023/02/07 01:01:26;;;;;;;2.35;1.35;;;5.70;96.70;;;;;;5052999;28;20560;-72
2023/02/07 01:03:56;;;;;;;4.03;1.25;;;5.80;96.70;;;;;;5066964;28;20114;-73
2023/02/07 01:06:24;;;;;;;1.90;0.88;;;5.70;96.70;;;;;;5061932;28;20080;-73
2023/02/07 01:08:56;;;;;;;4.03;1.30;;;5.70;96.70;;;;;;5065343;28;20383;-71
2023/02/07 01:11:27;;;;;;;3.97;1.58;;;5.70;96.70;;;;;;5069341;28;20047;-72
2023/02/07 01:13:55;;;;;;;2.05;1.10;;;5.70;96.70;;;;;;5057950;28;20045;-72
2023/02/07 01:16:25;;;;;;;4.35;1.60;;;5.70;96.70;;;;;;5058027;28;20036;-73
2023/02/07 01:18:54;;;;;;;3.67;1.52;;;5.70;96.70;;;;;;5065883;28;20393;-74
2023/02/07 01:21:24;;;;;;;2.70;1.30;;;5.70;96.70;;;;;;5052570;28;20040;-73
2023/02/07 01:23:55;;;;;;;3.45;2.00;;;5.70;96.70;;;;;;5083879;28;20044;-72
2023/02/07 01:26:26;;;;;;;3.25;1.23;;;5.60;96.70;;;;;;5081197;28;20127;-73
2023/02/07 01:28:54;;;;;;;3.58;1.58;;;5.60;96.70;;;;;;5083694;28;20044;-73
2023/02/07 01:31:22;;;;;;;3.33;1.60;;;5.60;96.70;;;;;;5058144;28;20382;-72
2023/02/07 01:33:53;;;;;;;2.63;1.50;;;5.70;96.70;;;;;;5061393;28;20363;-72
2023/02/07 01:36:22;;;;;;;3.00;1.13;;;5.60;96.70;;;;;;5082959;28;20044;-72
2023/02/07 01:38:52;;;;;;;3.67;1.00;;;5.60;96.70;;;;;;5065043;28;20051;-72
2023/02/07 01:41:21;;;;;;;3.20;1.42;;;5.60;96.70;;;;;;5063603;28;20497;-73
2023/02/07 01:44:02;;;;;;;2.13;1.23;;;5.50;96.70;;;;;;5076973;28;20044;-72
2023/02/07 01:46:32;;;;;;;2.90;1.33;;;5.50;96.70;;;;;;5054184;28;20666;-72
2023/02/07 01:49:07;;;;;;;2.50;1.25;;;5.50;96.70;;;;;;5054915;28;20060;-72
2023/02/07 01:51:42;;;;;;;2.85;1.38;;;5.50;96.70;;;;;;5060121;28;20506;-73
2023/02/07 01:54:12;;;;;;;4.50;1.35;;;5.50;96.70;;;;;;5060958;28;20044;-73
2023/02/07 01:56:44;;;;;;;2.47;1.27;;;5.50;96.70;;;;;;5037363;28;20037;-73
2023/02/07 01:59:15;;;;;;;1.52;1.00;;;5.50;96.70;;;;;;5055336;28;20151;-72
2023/02/07 02:01:44;;;;;;;3.10;1.25;;;5.50;96.70;;;;;;5060026;28;20075;-72
2023/02/07 02:04:12;;;;;;;1.52;1.13;;;5.40;96.70;;;;;;5059182;28;20049;-73
2023/02/07 02:06:40;;;;;;;4.25;1.48;;;5.40;96.70;;;;;;5056057;28;20055;-72
2023/02/07 02:09:11;;;;;;;1.50;0.98;;;5.40;96.70;;;;;;5054832;28;20450;-73
2023/02/07 02:12:12;;;;;;;2.28;1.08;;;5.40;96.70;;;;;;5056365;28;20106;-72
2023/02/07 02:15:12;;;;;;;3.47;1.20;;;5.40;96.70;;;;;;5056623;28;20148;-73
2023/02/07 02:18:00;;;;;;;4.30;1.35;;;5.40;96.70;;;;;;5032154;28;20075;-73
2023/02/07 02:20:57;;;;;;;4.03;1.60;;;5.40;96.70;;;;;;5045302;28;20045;-73
2023/02/07 02:23:41;;;;;;;1.85;1.00;;;5.40;96.70;;;;;;5022631;28;20068;-73
2023/02/07 02:26:42;;;;;;;2.83;1.63;;;5.30;96.70;;;;;;5035906;28;20036;-72
2023/02/07 02:29:48;;;;;;;1.90;1.10;;;5.30;96.70;;;;;;5050683;28;20045;-73
2023/02/07 02:32:52;;;;;;;2.13;1.20;;;5.30;96.70;;;;;;5056624;28;20048;-72
2023/02/07 02:35:24;;;;;;;2.20;1.20;;;5.30;96.70;;;;;;5056095;28;20588;-73
2023/02/07 02:37:58;;;;;;;2.13;1.20;;;5.30;96.70;;;;;;5053264;28;21021;-72
2023/02/07 02:40:33;;;;;;;2.17;1.20;;;5.30;96.70;;;;;;5027494;28;20056;-72
2023/02/07 02:43:08;;;;;;;2.92;1.20;;;5.30;96.70;;;;;;5056649;28;20585;-73
2023/02/07 02:45:41;;;;;;;2.42;1.23;;;5.30;96.70;;;;;;5060599;28;20060;-72
2023/02/07 02:48:11;;;;;;;3.33;1.50;;;5.30;96.70;;;;;;5055455;28;20060;-72
2023/02/07 02:50:45;;;;;;;2.08;1.27;;;5.30;96.70;;;;;;5051144;28;20080;-71
2023/02/07 02:53:14;;;;;;;3.63;1.67;;;5.20;96.70;;;;;;5047679;28;20106;-73
2023/02/07 02:56:16;;;;;;;2.20;1.17;;;5.20;96.70;;;;;;5057860;28;20056;-72
2023/02/07 02:58:59;;;;;;;2.08;1.20;;;5.30;96.70;;;;;;5041155;28;20537;-72
2023/02/07 03:01:38;;;;;;;3.08;1.50;;;5.30;96.70;;;;;;5059966;28;20045;-72
2023/02/07 03:04:37;;;;;;;2.67;1.52;;;5.30;96.70;;;;;;5056643;28;20067;-72
2023/02/07 03:07:20;;;;;;;2.30;1.20;;;5.20;96.70;;;;;;5036776;28;20075;-72
2023/02/07 03:09:59;;;;;;;2.13;1.40;;;5.30;96.70;;;;;;5060094;28;20052;-73
2023/02/07 03:12:37;;;;;;;2.00;1.30;;;5.30;96.70;;;;;;5043462;28;20052;-72
2023/02/07 03:15:12;;;;;;;3.10;1.80;;;5.30;96.70;;;;;;5053639;28;20509;-72
2023/02/07 03:17:49;;;;;;;2.70;1.60;;;5.30;96.70;;;;;;5060664;28;20095;-72
2023/02/07 03:20:22;;;;;;;3.42;2.08;;;5.20;96.70;;;;;;5053247;28;20040;-72
2023/02/07 03:22:52;;;;;;;3.08;1.60;;;5.20;96.70;;;;;;5040283;28;20051;-72
2023/02/07 03:25:23;;;;;;;3.10;1.52;;;5.20;96.70;;;;;;5030235;28;20596;-72
2023/02/07 03:27:53;;;;;;;2.95;1.58;;;5.20;96.70;;;;;;5060653;28;20065;-73
2023/02/07 03:30:25;;;;;;;2.38;1.38;;;5.20;96.70;;;;;;5048111;28;20039;-73
2023/02/07 03:32:58;;;;;;;2.28;1.65;;;5.20;96.70;;;;;;5052090;28;20099;-72
2023/02/07 03:35:32;;;;;;;3.08;1.50;;;5.20;96.70;;;;;;5048216;28;20135;-73
2023/02/07 03:38:02;;;;;;;3.25;1.38;;;5.10;96.70;;;;;;5056872;28;20040;-72
2023/02/07 03:40:37;;;;;;;3.83;1.52;;;5.10;96.70;;;;;;5061645;28;20052;-73
2023/02/07 03:43:09;;;;;;;2.33;1.50;;;5.10;96.70;;;;;;5058531;28;20037;-72
2023/02/07 03:45:38;;;;;;;2.42;1.30;;;5.10;96.70;;;;;;5047960;28;20057;-72
2023/02/07 03:48:06;;;;;;;3.50;1.50;;;5.20;96.70;;;;;;5067923;28;20044;-72
2023/02/07 03:50:35;;;;;;;3.22;1.65;;;5.20;96.70;;;;;;5079087;28;20049;-72
2023/02/07 03:53:03;;;;;;;4.88;1.73;;;5.10;96.70;;;;;;5076397;28;20040;-72
2023/02/07 03:55:32;;;;;;;3.15;1.75;;;5.10;96.70;;;;;;5066537;28;20130;-72
2023/02/07 03:57:59;;;;;;;4.10;1.65;;;5.20;96.70;;;;;;5078628;28;20042;-73
2023/02/07 04:00:27;;;;;;;2.35;1.25;;;5.10;96.70;;;;;;5082743;28;20047;-72
2023/02/07 04:02:55;;;;;;;4.03;1.55;;;5.10;96.70;;;;;;5051432;28;20082;-72
2023/02/07 04:05:23;;;;;;;4.13;1.75;;;5.10;96.70;;;;;;5065377;28;20097;-72
2023/02/07 04:07:53;;;;;;;3.15;1.50;;;5.10;96.70;;;;;;5058300;28;20041;-72
2023/02/07 04:10:21;;;;;;;2.53;1.60;;;5.10;96.70;;;;;;5060804;28;20524;-73
2023/02/07 04:12:48;;;;;;;4.72;2.22;;;5.10;96.70;;;;;;5067067;28;20078;-73
2023/02/07 04:15:17;;;;;;;4.10;1.88;;;5.10;96.70;;;;;;5061843;28;20048;-72
2023/02/07 04:17:45;;;;;;;4.53;1.85;;;5.10;96.70;;;;;;5069713;28;20040;-73
2023/02/07 04:20:13;;;;;;;5.05;2.00;;;5.10;96.70;;;;;;5068463;28;20090;-72
2023/02/07 04:22:41;;;;;;;4.85;2.00;;;5.10;96.70;;;;;;5083750;28;20036;-72
2023/02/07 04:25:10;;;;;;;3.40;2.03;;;5.10;96.70;;;;;;5053824;28;20044;-73
2023/02/07 04:27:38;;;;;;;4.57;1.90;;;5.10;96.70;;;;;;5085276;28;20071;-72
2023/02/07 04:30:07;;;;;;;4.32;1.88;;;5.10;96.70;;;;;;5069441;28;20134;-72
2023/02/07 04:32:36;;;;;;;4.90;2.15;;;5.10;96.70;;;;;;5054992;28;20168;-72
2023/02/07 04:35:05;;;;;;;5.40;1.77;;;5.10;96.70;;;;;;5041049;28;20046;-73
2023/02/07 04:37:33;;;;;;;3.80;1.73;;;5.10;96.70;;;;;;5055378;28;20586;-73
2023/02/07 04:40:01;;;;;;;4.10;2.05;;;5.00;96.70;;;;;;5064333;28;20055;-72
2023/02/07 04:42:31;;;;;;;6.03;1.85;;;5.00;96.70;;;;;;5065864;28;20055;-72
2023/02/07 04:44:59;;;;;;;4.57;2.13;;;5.00;96.70;;;;;;5062868;28;20039;-72
2023/02/07 04:47:27;;;;;;;3.40;2.08;;;5.00;96.70;;;;;;5084094;28;20048;-72
2023/02/07 04:49:55;;;;;;;6.50;3.33;;;5.10;96.70;;;;;;5081199;28;20598;-72
2023/02/07 04:52:23;;;;;;;5.15;3.03;;;5.00;96.70;;;;;;5067779;28;20044;-72
2023/02/07 04:54:51;;;;;;;8.02;4.25;;;5.10;96.70;;;;;;5058542;28;20044;-71
2023/02/07 04:57:19;;;;;;;9.82;5.15;;;5.10;96.70;;;;;;5038329;28;20044;-77
2023/02/07 04:59:48;;;;;;;6.55;3.72;;;5.10;96.70;;;;;;5077114;28;20048;-76
2023/02/07 05:02:16;;;;;;;7.43;3.88;;;5.10;96.70;;;;;;5046127;28;20037;-76
2023/02/07 05:04:43;;;;;;;6.13;2.35;;;5.10;96.70;;;;;;5048805;28;20139;-76
2023/02/07 05:07:18;;;;;;;6.78;2.30;;;5.10;96.70;;;;;;5084294;28;20047;-77
2023/02/07 05:09:46;;;;;;;4.32;2.05;;;5.10;96.70;;;;;;5066219;28;20067;-71
2023/02/07 05:12:15;;;;;;;6.05;2.25;;;5.10;96.70;;;;;;5068831;28;20036;-72
2023/02/07 05:14:43;;;;;;;3.10;2.00;;;5.10;96.70;;;;;;5063216;28;20455;-72
2023/02/07 05:17:12;;;;;;;5.93;2.08;;;5.10;96.70;;;;;;5078352;28;20317;-71
2023/02/07 05:19:40;;;;;;;6.63;2.28;;;5.10;96.70;;;;;;5045562;28;20053;-72
2023/02/07 05:22:09;;;;;;;3.33;2.03;;;5.00;96.70;;;;;;5051190;28;20044;-76
2023/02/07 05:24:38;;;;;;;3.30;2.00;;;5.00;96.70;;;;;;5047494;28;20752;-78
2023/02/07 05:27:06;;;;;;;4.13;2.20;;;5.00;96.70;;;;;;5053743;28;20050;-77
2023/02/07 05:29:34;;;;;;;6.47;2.10;;;5.00;96.70;;;;;;5050663;28;20384;-77
2023/02/07 05:34:51;;;;;;;5.13;2.20;;;5.00;96.70;;;;;;5084308;28;20044;-77
2023/02/07 05:37:19;;;;;;;3.05;1.92;;;5.10;96.70;;;;;;5052903;28;20067;-77
2023/02/07 05:39:46;;;;;;;4.28;2.25;;;5.10;96.70;;;;;;5065237;28;20517;-77
2023/02/07 05:42:14;;;;;;;3.25;2.08;;;5.10;96.70;;;;;;5065567;28;20541;-77
2023/02/07 05:44:43;;;;;;;4.32;2.20;;;5.10;96.70;;;;;;5077003;28;20125;-77
2023/02/07 05:47:11;;;;;;;4.93;2.17;;;5.10;96.70;;;;;;5083917;28;20047;-77
2023/02/07 05:49:39;;;;;;;3.75;2.30;;;5.10;96.70;;;;;;5072537;28;20048;-76
2023/02/07 05:52:08;;;;;;;4.72;2.15;;;5.00;96.70;;;;;;5074772;28;20567;-81
2023/02/07 05:54:36;;;;;;;3.53;2.00;;;5.10;96.70;;;;;;5049414;28;20076;-76
2023/02/07 05:57:04;;;;;;;3.47;1.80;;;5.10;96.70;;;;;;5076579;28;20045;-77
2023/02/07 05:59:32;;;;;;;4.82;2.13;;;5.10;96.70;;;;;;5067071;28;20094;-77
2023/02/07 06:01:59;;;;;;;6.55;2.38;;;5.10;96.70;;;;;;5061265;28;20106;-77
2023/02/07 06:04:27;;;;;;;4.22;2.03;;;5.00;96.70;;;;;;5059270;28;20175;-76
2023/02/07 06:06:55;;;;;;;4.47;2.10;;;5.10;96.70;;;;;;5081597;28;20048;-78
2023/02/07 06:09:24;;;;;;;6.38;2.30;;;5.00;96.70;;;;;;5043541;28;20556;-77
2023/02/07 06:11:54;;;;;;;5.28;1.95;;;5.10;96.70;;;;;;5055124;28;20402;-78
2023/02/07 06:14:23;;;;;;;3.10;2.13;;;5.10;96.70;;;;;;5058714;28;20122;-78
2023/02/07 06:16:50;;;;;;;4.88;1.90;;;5.10;96.70;;;;;;5046139;28;20701;-77
2023/02/07 06:19:18;;;;;;;5.13;2.40;;;5.00;96.70;;;;;;5055478;28;20085;-77
2023/02/07 06:21:46;;;;;;;4.85;2.20;;;5.10;96.70;;;;;;5077806;28;20876;-77
2023/02/07 06:24:14;;;;;;;4.75;2.15;;;5.00;96.70;;;;;;5052548;28;20040;-77
2023/02/07 06:26:45;;;;;;;4.22;2.30;;;5.00;96.70;;;;;;5065526;28;20127;-78
2023/02/07 06:29:13;;;;;;;5.05;2.45;;;5.00;96.70;;;;;;5064661;28;20101;-77
2023/02/07 06:31:41;;;;;;;5.50;2.50;;;5.10;96.70;;;;;;5080503;28;20040;-77
2023/02/07 06:34:09;;;;;;;5.50;2.00;;;5.10;96.70;;;;;;5064622;28;20048;-77
2023/02/07 06:36:37;;;;;;;4.15;1.80;;;5.10;96.70;;;;;;5053107;28;20044;-77
2023/02/07 06:39:05;;;;;;;4.82;2.38;;;5.10;96.70;;;;;;5043107;28;20048;-77
2023/02/07 06:41:33;;;;;;;4.70;2.10;;;5.10;96.70;;;;;;5082069;28;20067;-77
2023/02/07 06:44:02;;;;;;;8.00;2.20;;;5.10;96.70;;;;;;5073404;28;20044;-77
2023/02/07 06:46:30;;;;;;;3.63;2.05;;;5.10;96.70;;;;;;5064585;28;20047;-78
2023/02/07 06:48:58;;;;;;;4.10;2.08;;;5.10;96.70;;;;;;5082739;28;20139;-77
2023/02/07 06:51:26;;;;;;;3.80;1.80;;;5.10;96.70;;;;;;5081162;28;20071;-75
2023/02/07 06:53:54;;;;;;;4.47;2.13;;;5.20;96.70;;;;;;5072107;28;20648;-77
2023/02/07 06:56:21;;;;;;;5.95;2.50;;;5.20;96.70;;;;;;5073706;28;20111;-77
2023/02/07 06:58:49;;;;;;;4.57;2.10;;;5.20;96.70;;;;;;5059641;28;20048;-78
2023/02/07 07:01:21;;;;;;;4.20;1.85;;;5.20;96.70;;;;;;5072438;28;20040;-77
2023/02/07 07:03:50;;;;;;;4.45;2.15;;;5.20;96.70;;;;;;5052843;28;20455;-77
2023/02/07 07:06:18;;;;;;;3.95;2.03;;;5.20;96.70;;;;;;5082686;28;20147;-77
2023/02/07 07:08:46;;;;;;;4.22;1.80;;;5.20;96.70;;;;;;5068566;28;20037;-77
2023/02/07 07:11:13;;;;;;;5.25;2.00;;;5.30;96.70;;;;;;5062498;28;20040;-76
2023/02/07 07:13:41;;;;;;;4.95;2.00;;;5.30;96.70;;;;;;5064250;28;20413;-77
2023/02/07 07:16:10;;;;;;;4.13;2.13;;;5.30;96.70;;;;;;5064173;28;20044;-77
2023/02/07 07:18:40;;;;;;;4.82;2.28;;;5.30;96.70;;;;;;5070835;28;20044;-76
2023/02/07 07:21:08;;;;;;;3.55;2.22;;;5.40;96.70;;;;;;5069382;28;20048;-76
2023/02/07 07:23:36;;;;;;;5.13;2.05;;;5.40;96.70;;;;;;5085933;28;20577;-76
2023/02/07 07:26:05;;;;;;;6.13;1.85;;;5.40;96.70;;;;;;5068261;28;20521;-76
2023/02/07 07:28:33;;;;;;;3.47;2.28;;;5.40;96.70;;;;;;5077267;28;20050;-76
2023/02/07 07:31:03;;;;;;;5.55;2.28;;;5.50;96.70;;;;;;5061867;28;20168;-76
2023/02/07 07:33:31;;;;;;;5.00;2.08;;;5.50;96.70;;;;;;5051472;28;20044;-77
2023/02/07 07:36:02;;;;;;;5.80;2.47;;;5.60;96.70;;;;;;5060388;28;20498;-75
2023/02/07 07:38:30;;;;;;;3.88;1.83;;;5.60;96.70;;;;;;5038841;28;20658;-77
2023/02/07 07:40:59;;;;;;;4.65;2.20;;;5.60;96.70;;;;;;5041038;28;20486;-76
2023/02/07 07:43:27;;;;;;;5.88;2.70;;;5.60;96.70;;;;;;5055077;28;20076;-77
2023/02/07 07:45:58;;;;;;;5.22;2.50;;;5.70;96.70;;;;;;5048353;28;20032;-83
2023/02/07 07:48:27;;;;;;;3.50;2.65;;;5.70;96.70;;;;;;5048212;28;20084;-80
2023/02/07 07:50:56;;;;;;;4.25;2.30;;;5.70;96.70;;;;;;5067879;28;20041;-76
2023/02/07 07:53:25;;;;;;;4.90;2.72;;;5.80;96.70;;;;;;5053618;28;20056;-78
2023/02/07 07:55:55;;;;;;;5.30;2.58;;;5.80;96.70;;;;;;5061707;28;20223;-78
2023/02/07 07:58:24;;;;;;;3.85;2.22;;;5.80;96.70;;;;;;5048072;28;20604;-77
2023/02/07 08:00:52;;;;;;;4.68;2.17;;;5.80;96.70;;;;;;5051743;28;20044;-79
2023/02/07 08:03:20;;;;;;;6.10;2.40;;;5.80;96.70;;;;;;5060305;28;20048;-78
2023/02/07 08:05:48;;;;;;;7.43;2.83;;;5.90;96.70;;;;;;5050756;28;20074;-77
2023/02/07 08:08:18;;;;;;;5.95;2.35;;;5.90;96.70;;;;;;5050990;28;20032;-77
2023/02/07 08:10:48;;;;;;;6.15;2.10;;;6.00;96.70;;;;;;5059892;28;20049;-77
2023/02/07 08:13:16;;;;;;;2.88;1.85;;;6.00;96.70;;;;;;5060576;28;20049;-78
2023/02/07 08:15:44;;;;;;;5.50;2.47;;;6.10;96.70;;;;;;5048521;28;20056;-77
2023/02/07 08:18:12;;;;;;;4.80;2.05;;;6.00;96.70;;;;;;5056318;28;20045;-78
2023/02/07 08:20:40;;;;;;;4.32;2.47;;;6.10;96.70;;;;;;5045058;28;20048;-77
2023/02/07 08:23:08;;;;;;;5.63;2.55;;;6.20;96.70;;;;;;5037819;28;20048;-81
2023/02/07 08:25:36;;;;;;;5.68;2.72;;;6.20;96.70;;;;;;5034922;28;20045;-76
2023/02/07 08:28:07;;;;;;;4.05;2.38;;;6.20;96.70;;;;;;5061080;28;20120;-77
2023/02/07 08:30:35;;;;;;;5.93;2.38;;;6.20;96.70;;;;;;5055478;28;20043;-76
2023/02/07 08:33:04;;;;;;;4.53;2.30;;;6.20;96.70;;;;;;5053102;28;20059;-76
2023/02/07 08:35:32;;;;;;;5.78;2.17;;;6.30;96.70;;;;;;5064055;28;20032;-77
2023/02/07 08:38:01;;;;;;;4.00;2.10;;;6.30;96.70;;;;;;5055253;28;20383;-79
2023/02/07 08:40:29;;;;;;;2.95;1.88;;;6.30;96.70;;;;;;5063419;28;20038;-77
2023/02/07 08:42:57;;;;;;;3.85;2.38;;;6.40;96.70;;;;;;5063884;28;20044;-76
2023/02/07 08:45:27;;;;;;;5.57;2.38;;;6.40;96.70;;;;;;5063197;28;20045;-79
2023/02/07 08:47:56;;;;;;;4.10;2.42;;;6.40;96.70;;;;;;5061888;28;20056;-77
2023/02/07 08:50:24;;;;;;;4.47;2.47;;;6.40;96.70;;;;;;5065466;28;20405;-76
2023/02/07 08:52:52;;;;;;;3.90;2.22;;;6.40;96.70;;;;;;5076779;28;20044;-78
2023/02/07 08:55:20;;;;;;;6.40;2.50;;;6.40;96.70;;;;;;5065297;28;20538;-76
2023/02/07 08:57:48;;;;;;;3.25;2.20;;;6.40;96.70;;;;;;5084598;28;20123;-79
2023/02/07 09:00:16;;;;;;;4.70;2.20;;;6.50;96.70;;;;;;5064240;28;20047;-79
2023/02/07 09:02:46;;;;;;;4.15;2.10;;;6.50;96.70;;;;;;5061185;28;20101;-75
2023/02/07 09:05:14;;;;;;;5.30;2.40;;;6.60;96.70;;;;;;5084350;28;20133;-76
2023/02/07 09:07:42;;;;;;;5.10;2.30;;;6.60;96.70;;;;;;5084175;28;20185;-76
2023/02/07 09:10:14;;;;;;;4.28;2.20;;;6.80;96.70;;;;;;5059437;28;20037;-76
2023/02/07 09:12:42;;;;;;;4.32;2.15;;;6.70;96.70;;;;;;5082010;28;20040;-76
2023/02/07 09:15:10;;;;;;;5.22;2.15;;;6.70;96.70;;;;;;5063119;28;20129;-78
2023/02/07 09:17:38;;;;;;;4.03;2.20;;;6.80;96.70;;;;;;5049681;28;20452;-78
2023/02/07 09:20:08;;;;;;;4.75;2.80;;;6.90;96.70;;;;;;5044203;28;20583;-75
2023/02/07 09:23:16;;;;;;;3.05;1.92;;;6.90;96.70;;;;;;5064494;28;20052;-76
2023/02/07 09:25:24;;;;;;;5.93;2.13;;;7.00;96.70;;;;;;5083860;28;20040;-76
2023/02/07 09:27:54;;;;;;;3.75;1.83;;;7.10;96.70;;;;;;5060043;28;20067;-76
2023/02/07 09:30:22;;;;;;;3.30;2.00;;;7.10;96.70;;;;;;5057460;28;20048;-77
2023/02/07 09:32:50;;;;;;;4.50;2.28;;;7.20;96.70;;;;;;5064765;28;20723;-76
2023/02/07 09:35:20;;;;;;;3.15;1.83;;;7.20;96.70;;;;;;5066172;28;20052;-76
2023/02/07 09:37:51;;;;;;;2.40;1.85;;;7.30;96.70;;;;;;5083526;28;20036;-79
2023/02/07 09:40:20;;;;;;;2.97;1.90;;;7.30;96.70;;;;;;5083535;28;20068;-76
2023/02/07 09:42:55;;;;;;;4.75;2.38;;;7.30;96.70;;;;;;5082633;28;20417;-77
2023/02/07 09:45:28;;;;;;;2.50;1.77;;;7.30;96.70;;;;;;5048477;28;20529;-76
2023/02/07 09:48:02;;;;;;;4.45;2.40;;;7.40;96.70;;;;;;5063365;28;20074;-76
2023/02/07 09:50:33;;;;;;;4.78;2.15;;;7.50;96.70;;;;;;5057031;28;20047;-77
2023/02/07 09:53:07;;;;;;;4.60;2.45;;;7.60;96.70;;;;;;5065126;28;20055;-77
2023/02/07 09:55:42;;;;;;;2.83;2.03;;;7.70;96.70;;;;;;5065014;28;20500;-76
2023/02/07 09:58:15;;;;;;;6.22;1.83;;;7.80;96.70;;;;;;5052815;28;20048;-78
2023/02/07 10:00:52;;;;;;;2.80;1.60;;;7.80;96.70;;;;;;5083895;28;20044;-77
2023/02/07 10:03:23;;;;;;;3.53;2.25;;;7.80;96.70;;;;;;5076639;28;20040;-77
2023/02/07 10:05:58;;;;;;;5.20;2.33;;;7.80;96.70;;;;;;5050148;28;20528;-77
2023/02/07 10:08:45;;;;;;;4.88;2.50;;;7.80;96.70;;;;;;5077414;28;20046;-77
2023/02/07 10:11:19;;;;;;;2.92;1.88;;;7.90;96.70;;;;;;5058291;28;20584;-76
2023/02/07 10:14:06;;;;;;;4.45;2.17;;;8.00;96.70;;;;;;5048664;28;20051;-76
2023/02/07 10:17:03;;;;;;;3.17;1.73;;;8.00;96.70;;;;;;5082732;28;20048;-77
2023/02/07 10:19:41;;;;;;;3.95;2.47;;;8.10;96.70;;;;;;5063919;28;20064;-77
2023/02/07 10:22:22;;;;;;;4.03;2.00;;;8.10;96.70;;;;;;5059357;28;20815;-76
2023/02/07 10:25:07;;;;;;;4.93;2.50;;;8.20;96.70;;;;;;5056745;28;20040;-75
2023/02/07 10:27:41;;;;;;;3.17;1.92;;;8.20;96.70;;;;;;5051576;28;20093;-77
2023/02/07 10:30:14;;;;;;;4.68;1.80;;;8.30;96.70;;;;;;5043337;28;20040;-77
2023/02/07 10:32:45;;;;;;;4.82;2.10;;;8.40;96.70;;;;;;5081048;28;20043;-76
2023/02/07 10:35:36;;;;;;;3.72;2.00;;;8.50;96.70;;;;;;5082296;28;20062;-76
2023/02/07 10:38:19;;;;;;;5.35;2.05;;;8.50;96.70;;;;;;5062662;28;20048;-79
2023/02/07 10:40:52;;;;;;;4.50;2.85;;;8.60;96.70;;;;;;5063541;28;20051;-77
2023/02/07 10:43:27;;;;;;;3.95;2.22;;;8.70;96.70;;;;;;5049668;28;21201;-76
2023/02/07 10:45:58;;;;;;;4.32;2.28;;;8.70;96.70;;;;;;5054000;28;20048;-76
2023/02/07 10:48:32;;;;;;;5.53;3.50;;;8.70;96.70;;;;;;5064391;28;20143;-76
2023/02/07 10:51:03;;;;;;;5.57;3.33;;;8.70;96.70;;;;;;5079395;28;20093;-78
2023/02/07 10:53:46;;;;;;;3.33;2.70;;;8.80;96.70;;;;;;5032558;28;20056;-76
2023/02/07 10:56:25;;;;;;;4.20;2.15;;;8.90;96.70;;;;;;5081586;28;20055;-76
2023/02/07 10:58:56;;;;;;;4.15;2.80;;;8.80;96.70;;;;;;5082124;28;20473;-75
2023/02/07 11:01:25;;;;;;;6.65;3.22;;;8.90;96.70;;;;;;5065456;28;20137;-76
2023/02/07 11:03:54;;;;;;;4.57;2.83;;;9.00;96.70;;;;;;5078616;28;20059;-76
2023/02/07 11:06:28;;;;;;;3.38;2.33;;;9.00;96.70;;;;;;5076863;28;20064;-76
2023/02/07 11:09:20;;;;;;;4.20;2.17;;;9.10;96.70;;;;;;5059832;28;20155;-80
2023/02/07 11:11:49;;;;;;;3.85;2.55;;;9.20;96.70;;;;;;5064328;28;20073;-80
2023/02/07 11:14:20;;;;;;;3.55;2.30;;;9.30;96.70;;;;;;5063854;28;20147;-77
2023/02/07 11:16:48;;;;;;;4.13;2.20;;;9.40;96.70;;;;;;5082701;28;20543;-77
2023/02/07 11:19:19;;;;;;;5.43;2.40;;;9.50;96.70;;;;;;5082370;28;20502;-76
2023/02/07 11:21:49;;;;;;;5.22;2.67;;;9.50;96.70;;;;;;5058769;28;20050;-77
2023/02/07 11:24:24;;;;;;;6.38;3.20;;;9.60;96.70;;;;;;5067616;28;20040;-77
2023/02/07 11:27:01;;;;;;;3.80;2.90;;;9.70;96.70;;;;;;5081811;28;20044;-77
2023/02/07 11:29:31;;;;;;;4.53;2.60;;;9.70;96.70;;;;;;5063644;28;20036;-77
2023/02/07 11:32:00;;;;;;;6.28;4.45;;;9.70;96.70;;;;;;5081188;28;20048;-76
2023/02/07 11:34:45;;;;;;;4.38;2.80;;;9.80;96.70;;;;;;5080677;28;20046;-76
2023/02/07 11:37:26;;;;;;;3.45;2.17;;;10.00;96.70;;;;;;5064272;28;20059;-77
2023/02/07 11:40:23;;;;;;;3.58;2.40;;;10.00;96.70;;;;;;5080506;28;20040;-76
2023/02/07 11:42:59;;;;;;;3.10;2.00;;;9.90;96.70;;;;;;5053525;28;20076;-76
2023/02/07 11:45:29;;;;;;;10.03;3.40;;;9.90;96.70;;;;;;5057646;28;20033;-77
2023/02/07 11:47:58;;;;;;;3.58;2.03;;;10.00;96.70;;;;;;5080757;28;20044;-77
2023/02/07 11:50:29;;;;;;;5.32;2.45;;;10.10;96.70;;;;;;5049988;28;20094;-76
2023/02/07 11:52:59;;;;;;;5.88;2.70;;;10.20;96.70;;;;;;5081778;28;20055;-76
2023/02/07 11:55:32;;;;;;;3.40;2.50;;;10.30;96.70;;;;;;5063567;28;20968;-78
2023/02/07 11:58:06;;;;;;;4.03;2.60;;;10.50;96.70;;;;;;5082063;28;20044;-77
2023/02/07 12:00:36;;;;;;;3.42;2.25;;;10.50;96.70;;;;;;5076616;28;20369;-72
2023/02/07 12:03:13;;;;;;;4.38;2.38;;;10.60;96.70;;;;;;5057083;28;20052;-71
2023/02/07 12:05:46;;;;;;;4.35;3.20;;;10.70;96.70;;;;;;5063831;28;20418;-71
2023/02/07 12:08:18;;;;;;;4.28;2.38;;;10.90;96.70;;;;;;5063472;28;20118;-72
2023/02/07 12:10:51;;;;;;;3.63;2.13;;;10.90;96.70;;;;;;5085140;28;20036;-72
2023/02/07 12:13:23;;;;;;;4.85;2.40;;;11.00;96.70;;;;;;5085565;28;20040;-71
2023/02/07 12:15:55;;;;;;;4.30;2.25;;;11.00;96.70;;;;;;5086041;28;20500;-71
2023/02/07 12:18:28;;;;;;;3.30;1.80;;;11.00;96.70;;;;;;5077218;28;20689;-71
2023/02/07 12:21:03;;;;;;;3.42;2.13;;;10.90;96.70;;;;;;5065523;28;20051;-72
2023/02/07 12:23:40;;;;;;;3.00;2.08;;;10.90;96.70;;;;;;5050353;28;20056;-72
2023/02/07 12:26:23;;;;;;;6.05;2.38;;;11.10;96.70;;;;;;5060459;28;20044;-72
2023/02/07 12:29:07;;;;;;;3.28;2.15;;;11.20;96.70;;;;;;5066602;28;20079;-71
2023/02/07 12:31:48;;;;;;;3.50;2.20;;;11.30;96.70;;;;;;5060433;28;20398;-71
2023/02/07 12:34:20;;;;;;;;;;;11.40;96.70;;;;;;5066966;28;20106;-72
2023/02/07 12:36:54;;;;;;;4.85;2.92;;;11.50;96.70;;;;;;5078393;28;19924;-72
2023/02/07 12:39:30;;;;;;;4.13;2.45;;;11.50;96.70;;;;;;5084263;28;20048;-72
2023/02/07 12:42:12;;;;;;;3.37;2.63;;;11.40;96.70;;;;;;5066146;28;20342;-71
2023/02/07 12:44:46;;;;;;;3.72;2.42;;;11.60;96.70;;;;;;5083383;28;21005;-72
2023/02/07 12:47:20;;;;;;;3.70;2.58;;;11.60;96.70;;;;;;5084860;28;20052;-72
2023/02/07 12:50:13;;;;;;;7.10;4.45;;;11.50;96.70;;;;;;5058015;28;20089;-71
2023/02/07 12:52:52;;;;;;;4.80;3.78;;;11.50;96.70;;;;;;5055710;28;20048;-73
2023/02/07 12:55:36;;;;;;;4.65;3.25;;;11.60;96.70;;;;;;5049810;28;20486;-71
2023/02/07 12:58:24;;;;;;;5.50;3.40;;;11.60;96.70;;;;;;5050455;28;20049;-71
2023/02/07 13:00:59;;;;;;;4.75;2.97;;;11.70;96.70;;;;;;5072083;28;20051;-71
2023/02/07 13:03:50;;;;;;;5.28;3.30;;;11.70;96.70;;;;;;5072149;28;20613;-71
2023/02/07 13:06:25;;;;;;;6.63;3.78;;;11.80;96.70;;;;;;5078010;28;20048;-70
2023/02/07 13:09:00;;;;;;;5.47;3.13;;;11.90;96.70;;;;;;5073072;28;20047;-75
2023/02/07 13:11:39;;;;;;;4.43;3.08;;;12.00;96.70;;;;;;5072695;28;20461;-72
2023/02/07 13:14:34;;;;;;;4.63;3.20;;;12.00;96.70;;;;;;5075442;28;20033;-73
2023/02/07 13:17:23;;;;;;;5.32;2.55;;;12.10;96.70;;;;;;5043298;28;20498;-73
2023/02/07 13:19:56;;;;;;;4.63;2.47;;;12.10;96.70;;;;;;5075713;28;20115;-72
2023/02/07 13:22:31;;;;;;;5.40;3.00;;;12.10;96.70;;;;;;5081905;28;20052;-72
2023/02/07 13:25:00;;;;;;;3.05;1.90;;;12.00;96.70;;;;;;5064598;28;20462;-73